Fort Smith Airport

CYSM | YSM

Fort Smith , Northwest Territories , Canada

Thursday, September 19th, 2019 | 13:21

Weather

CYSM 191900Z 17014G19KT 15SM SCT180 BKN210 BKN240 17/08 A2961 RMK AC3CI2CI1 SLP035 DENSITY ALT 1500FT

Charts

No Charts Available

Gates

No Gates Available

Runways

2 Available

Events

No events for this airport


New event